sensor_id;sensor_type;location;lat;lon;timestamp;pressure;altitude;pressure_sealevel;temperature;humidity
49841;BME280;35738;49.890;5.930;2023-07-20T00:00:30;96022.38;;;12.05;100.00
49841;BME280;35738;49.890;5.930;2023-07-20T00:03:14;96035.22;;;12.01;100.00
49841;BME280;35738;49.890;5.930;2023-07-20T00:05:46;96045.28;;;11.97;100.00
49841;BME280;35738;49.890;5.930;2023-07-20T00:08:12;96053.09;;;11.95;100.00
49841;BME280;35738;49.890;5.930;2023-07-20T00:10:40;96054.56;;;11.93;100.00
49841;BME280;35738;49.890;5.930;2023-07-20T00:13:08;96059.59;;;11.91;100.00
49841;BME280;35738;49.890;5.930;2023-07-20T00:15:35;96064.59;;;11.89;100.00
49841;BME280;35738;49.890;5.930;2023-07-20T00:18:02;96074.00;;;11.88;100.00
49841;BME280;35738;49.890;5.930;2023-07-20T00:20:29;96076.97;;;11.83;100.00
49841;BME280;35738;49.890;5.930;2023-07-20T00:22:57;96082.00;;;11.81;100.00
49841;BME280;35738;49.890;5.930;2023-07-20T00:25:26;96084.75;;;11.81;100.00
49841;BME280;35738;49.890;5.930;2023-07-20T00:27:52;96090.94;;;11.77;100.00
49841;BME280;35738;49.890;5.930;2023-07-20T00:30:19;96110.84;;;11.74;100.00
49841;BME280;35738;49.890;5.930;2023-07-20T00:32:46;96109.91;;;11.70;100.00
49841;BME280;35738;49.890;5.930;2023-07-20T00:35:12;96107.00;;;11.67;100.00
49841;BME280;35738;49.890;5.930;2023-07-20T00:37:40;96118.34;;;11.65;100.00
49841;BME280;35738;49.890;5.930;2023-07-20T00:40:07;96125.66;;;11.61;100.00
49841;BME280;35738;49.890;5.930;2023-07-20T00:42:35;96119.66;;;11.59;100.00
49841;BME280;35738;49.890;5.930;2023-07-20T00:45:02;96124.69;;;11.57;100.00
49841;BME280;35738;49.890;5.930;2023-07-20T00:47:29;96124.53;;;11.54;100.00
49841;BME280;35738;49.890;5.930;2023-07-20T00:49:55;96112.25;;;11.51;100.00
49841;BME280;35738;49.890;5.930;2023-07-20T00:52:23;96128.13;;;11.45;100.00
49841;BME280;35738;49.890;5.930;2023-07-20T00:54:49;96124.91;;;11.43;100.00
49841;BME280;35738;49.890;5.930;2023-07-20T00:57:17;96132.34;;;11.43;100.00
49841;BME280;35738;49.890;5.930;2023-07-20T00:59:44;96135.28;;;11.38;100.00
49841;BME280;35738;49.890;5.930;2023-07-20T01:02:11;96145.00;;;11.35;100.00
49841;BME280;35738;49.890;5.930;2023-07-20T01:04:37;96146.00;;;11.31;100.00
49841;BME280;35738;49.890;5.930;2023-07-20T01:07:25;96144.56;;;11.25;100.00
49841;BME280;35738;49.890;5.930;2023-07-20T01:10:12;96152.19;;;11.19;100.00
49841;BME280;35738;49.890;5.930;2023-07-20T01:12:43;96144.56;;;11.16;100.00
49841;BME280;35738;49.890;5.930;2023-07-20T01:15:10;96137.28;;;11.20;100.00
49841;BME280;35738;49.890;5.930;2023-07-20T01:17:37;96148.28;;;11.20;100.00
49841;BME280;35738;49.890;5.930;2023-07-20T01:20:06;96147.00;;;11.18;100.00
49841;BME280;35738;49.890;5.930;2023-07-20T01:33:16;96149.75;;;11.00;100.00
49841;BME280;35738;49.890;5.930;2023-07-20T01:35:45;96149.25;;;10.98;100.00
49841;BME280;35738;49.890;5.930;2023-07-20T01:38:13;96139.88;;;10.91;100.00
49841;BME280;35738;49.890;5.930;2023-07-20T01:40:40;96142.16;;;10.89;100.00
49841;BME280;35738;49.890;5.930;2023-07-20T01:43:07;96140.38;;;10.84;100.00
49841;BME280;35738;49.890;5.930;2023-07-20T01:45:34;96133.09;;;10.79;100.00
49841;BME280;35738;49.890;5.930;2023-07-20T01:48:00;96130.34;;;10.79;100.00
49841;BME280;35738;49.890;5.930;2023-07-20T01:50:27;96119.66;;;10.78;100.00
49841;BME280;35738;49.890;5.930;2023-07-20T01:52:54;96124.50;;;10.81;100.00
49841;BME280;35738;49.890;5.930;2023-07-20T01:55:21;96124.03;;;10.79;100.00
49841;BME280;35738;49.890;5.930;2023-07-20T01:57:47;96116.91;;;10.78;100.00
49841;BME280;35738;49.890;5.930;2023-07-20T02:00:14;96124.19;;;10.74;100.00
49841;BME280;35738;49.890;5.930;2023-07-20T02:02:41;96109.63;;;10.73;100.00
49841;BME280;35738;49.890;5.930;2023-07-20T02:05:09;96106.56;;;10.75;100.00
49841;BME280;35738;49.890;5.930;2023-07-20T02:07:35;96105.25;;;10.72;100.00
49841;BME280;35738;49.890;5.930;2023-07-20T02:10:02;96211.91;;;10.67;100.00
49841;BME280;35738;49.890;5.930;2023-07-20T02:12:29;96203.47;;;10.55;100.00
49841;BME280;35738;49.890;5.930;2023-07-20T02:14:55;96207.66;;;10.52;100.00
49841;BME280;35738;49.890;5.930;2023-07-20T02:17:22;96188.75;;;10.59;100.00
49841;BME280;35738;49.890;5.930;2023-07-20T02:19:56;96195.22;;;10.63;100.00
49841;BME280;35738;49.890;5.930;2023-07-20T02:22:23;96186.00;;;10.59;100.00
49841;BME280;35738;49.890;5.930;2023-07-20T02:24:51;96189.09;;;10.66;100.00
49841;BME280;35738;49.890;5.930;2023-07-20T02:27:17;96185.03;;;10.64;100.00
49841;BME280;35738;49.890;5.930;2023-07-20T02:29:44;96176.28;;;10.62;100.00
49841;BME280;35738;49.890;5.930;2023-07-20T02:32:11;96178.06;;;10.66;100.00
49841;BME280;35738;49.890;5.930;2023-07-20T02:34:38;96177.09;;;10.62;100.00
49841;BME280;35738;49.890;5.930;2023-07-20T02:37:05;96175.00;;;10.68;100.00
49841;BME280;35738;49.890;5.930;2023-07-20T02:39:32;96170.16;;;10.65;100.00
49841;BME280;35738;49.890;5.930;2023-07-20T02:41:58;96161.41;;;10.63;100.00
49841;BME280;35738;49.890;5.930;2023-07-20T02:44:25;96151.22;;;10.63;100.00
49841;BME280;35738;49.890;5.930;2023-07-20T02:46:51;96145.56;;;10.68;100.00
49841;BME280;35738;49.890;5.930;2023-07-20T02:49:18;96134.22;;;10.70;100.00
49841;BME280;35738;49.890;5.930;2023-07-20T02:51:44;96130.50;;;10.66;100.00
49841;BME280;35738;49.890;5.930;2023-07-20T02:54:12;96117.41;;;10.63;100.00
49841;BME280;35738;49.890;5.930;2023-07-20T02:56:38;96124.38;;;10.60;100.00
49841;BME280;35738;49.890;5.930;2023-07-20T02:59:05;96122.59;;;10.56;100.00
49841;BME280;35738;49.890;5.930;2023-07-20T03:01:31;96123.22;;;10.53;100.00
49841;BME280;35738;49.890;5.930;2023-07-20T03:03:58;96126.13;;;10.47;100.00
49841;BME280;35738;49.890;5.930;2023-07-20T03:06:25;96130.03;;;10.46;100.00
49841;BME280;35738;49.890;5.930;2023-07-20T03:08:52;96127.91;;;10.43;100.00
49841;BME280;35738;49.890;5.930;2023-07-20T03:11:20;96130.84;;;10.47;100.00
49841;BME280;35738;49.890;5.930;2023-07-20T03:13:48;96136.16;;;10.43;100.00
49841;BME280;35738;49.890;5.930;2023-07-20T03:16:17;96131.78;;;10.42;100.00
49841;BME280;35738;49.890;5.930;2023-07-20T03:18:44;96146.00;;;10.36;100.00
49841;BME280;35738;49.890;5.930;2023-07-20T03:21:10;96148.72;;;10.27;100.00
49841;BME280;35738;49.890;5.930;2023-07-20T03:23:40;96160.03;;;10.26;100.00
49841;BME280;35738;49.890;5.930;2023-07-20T03:26:07;96167.31;;;10.30;100.00
49841;BME280;35738;49.890;5.930;2023-07-20T03:28:38;96181.72;;;10.36;100.00
49841;BME280;35738;49.890;5.930;2023-07-20T03:31:05;96188.34;;;10.35;100.00
49841;BME280;35738;49.890;5.930;2023-07-20T03:33:33;96197.41;;;10.27;100.00
49841;BME280;35738;49.890;5.930;2023-07-20T03:36:00;96200.72;;;10.15;100.00
49841;BME280;35738;49.890;5.930;2023-07-20T03:38:27;96203.78;;;10.13;100.00
49841;BME280;35738;49.890;5.930;2023-07-20T03:40:58;96215.59;;;10.14;100.00
49841;BME280;35738;49.890;5.930;2023-07-20T03:43:27;96218.19;;;10.19;100.00
49841;BME280;35738;49.890;5.930;2023-07-20T03:45:54;96226.44;;;10.19;100.00
49841;BME280;35738;49.890;5.930;2023-07-20T03:48:22;96236.94;;;10.17;100.00
49841;BME280;35738;49.890;5.930;2023-07-20T03:50:51;96233.38;;;10.16;100.00
49841;BME280;35738;49.890;5.930;2023-07-20T03:53:18;96241.47;;;10.13;100.00
49841;BME280;35738;49.890;5.930;2023-07-20T03:55:45;96243.22;;;10.09;100.00
49841;BME280;35738;49.890;5.930;2023-07-20T03:58:13;96252.09;;;10.06;100.00
49841;BME280;35738;49.890;5.930;2023-07-20T04:00:47;96255.97;;;10.05;100.00
49841;BME280;35738;49.890;5.930;2023-07-20T04:03:14;96239.00;;;10.03;100.00
49841;BME280;35738;49.890;5.930;2023-07-20T04:05:42;96250.31;;;10.01;100.00
49841;BME280;35738;49.890;5.930;2023-07-20T04:08:09;96250.13;;;9.98;100.00
49841;BME280;35738;49.890;5.930;2023-07-20T04:10:38;96255.63;;;9.98;100.00
49841;BME280;35738;49.890;5.930;2023-07-20T04:13:05;96261.44;;;9.96;100.00
49841;BME280;35738;49.890;5.930;2023-07-20T04:15:31;96260.63;;;9.96;100.00
49841;BME280;35738;49.890;5.930;2023-07-20T04:17:58;96263.38;;;9.96;100.00
49841;BME280;35738;49.890;5.930;2023-07-20T04:20:25;96264.38;;;10.00;100.00
49841;BME280;35738;49.890;5.930;2023-07-20T04:22:52;96270.22;;;10.07;100.00
49841;BME280;35738;49.890;5.930;2023-07-20T04:25:18;96269.13;;;10.16;100.00
49841;BME280;35738;49.890;5.930;2023-07-20T04:27:45;96278.41;;;10.29;100.00
49841;BME280;35738;49.890;5.930;2023-07-20T04:30:12;96282.16;;;10.33;100.00
49841;BME280;35738;49.890;5.930;2023-07-20T04:32:39;96279.91;;;10.35;100.00
49841;BME280;35738;49.890;5.930;2023-07-20T04:35:18;96281.41;;;10.41;100.00
49841;BME280;35738;49.890;5.930;2023-07-20T04:37:44;96289.19;;;10.48;100.00
49841;BME280;35738;49.890;5.930;2023-07-20T04:40:15;96284.00;;;10.46;100.00
49841;BME280;35738;49.890;5.930;2023-07-20T04:42:42;96289.03;;;10.53;100.00
49841;BME280;35738;49.890;5.930;2023-07-20T04:45:08;96298.13;;;10.62;100.00
49841;BME280;35738;49.890;5.930;2023-07-20T04:47:35;96299.91;;;10.67;100.00
49841;BME280;35738;49.890;5.930;2023-07-20T04:50:02;96304.78;;;10.70;100.00
49841;BME280;35738;49.890;5.930;2023-07-20T04:52:28;96305.41;;;10.67;100.00
49841;BME280;35738;49.890;5.930;2023-07-20T04:55:07;96303.16;;;10.69;100.00
49841;BME280;35738;49.890;5.930;2023-07-20T04:57:41;96308.84;;;10.72;100.00
49841;BME280;35738;49.890;5.930;2023-07-20T05:00:11;96308.84;;;10.72;100.00
49841;BME280;35738;49.890;5.930;2023-07-20T05:02:39;96317.56;;;10.74;100.00
49841;BME280;35738;49.890;5.930;2023-07-20T05:05:06;96321.47;;;10.73;100.00
49841;BME280;35738;49.890;5.930;2023-07-20T05:07:33;96314.81;;;10.74;100.00
49841;BME280;35738;49.890;5.930;2023-07-20T05:10:00;96316.28;;;10.80;100.00
49841;BME280;35738;49.890;5.930;2023-07-20T05:12:27;96320.50;;;10.87;100.00
49841;BME280;35738;49.890;5.930;2023-07-20T05:14:53;96328.63;;;10.92;100.00
49841;BME280;35738;49.890;5.930;2023-07-20T05:17:20;96328.63;;;10.92;100.00
49841;BME280;35738;49.890;5.930;2023-07-20T05:19:46;96333.47;;;10.95;100.00
49841;BME280;35738;49.890;5.930;2023-07-20T05:22:13;96324.09;;;11.04;100.00
49841;BME280;35738;49.890;5.930;2023-07-20T05:24:40;96325.25;;;11.03;100.00
49841;BME280;35738;49.890;5.930;2023-07-20T05:27:07;96319.44;;;11.13;100.00
49841;BME280;35738;49.890;5.930;2023-07-20T05:29:33;96316.72;;;11.39;100.00
49841;BME280;35738;49.890;5.930;2023-07-20T05:32:00;96326.59;;;11.66;100.00
49841;BME280;35738;49.890;5.930;2023-07-20T05:34:26;96318.81;;;12.03;100.00
49841;BME280;35738;49.890;5.930;2023-07-20T05:37:11;96335.88;;;13.11;100.00
49841;BME280;35738;49.890;5.930;2023-07-20T05:39:40;96320.72;;;13.67;100.00
49841;BME280;35738;49.890;5.930;2023-07-20T05:42:07;96308.28;;;14.27;100.00
49841;BME280;35738;49.890;5.930;2023-07-20T05:44:34;96279.38;;;14.37;100.00
49841;BME280;35738;49.890;5.930;2023-07-20T05:47:01;96234.84;;;13.39;100.00
49841;BME280;35738;49.890;5.930;2023-07-20T05:49:29;96212.63;;;12.85;100.00
49841;BME280;35738;49.890;5.930;2023-07-20T05:51:56;96217.97;;;13.11;100.00
49841;BME280;35738;49.890;5.930;2023-07-20T05:54:26;96216.47;;;13.14;100.00
49841;BME280;35738;49.890;5.930;2023-07-20T05:56:53;96195.41;;;12.88;100.00
49841;BME280;35738;49.890;5.930;2023-07-20T05:59:19;96202.53;;;12.89;100.00
49841;BME280;35738;49.890;5.930;2023-07-20T06:01:46;96201.25;;;13.08;100.00
49841;BME280;35738;49.890;5.930;2023-07-20T06:04:15;96199.31;;;13.08;100.00
49841;BME280;35738;49.890;5.930;2023-07-20T06:06:42;96191.09;;;12.99;100.00
49841;BME280;35738;49.890;5.930;2023-07-20T06:09:08;96195.47;;;12.80;100.00
49841;BME280;35738;49.890;5.930;2023-07-20T06:11:39;96202.22;;;12.61;100.00
49841;BME280;35738;49.890;5.930;2023-07-20T06:14:05;96198.84;;;12.56;100.00
49841;BME280;35738;49.890;5.930;2023-07-20T06:16:32;96209.53;;;12.66;100.00
49841;BME280;35738;49.890;5.930;2023-07-20T06:19:02;96205.91;;;12.74;100.00
49841;BME280;35738;49.890;5.930;2023-07-20T06:21:29;96213.03;;;12.75;100.00
49841;BME280;35738;49.890;5.930;2023-07-20T06:23:55;96217.06;;;12.78;100.00
49841;BME280;35738;49.890;5.930;2023-07-20T06:26:22;96218.44;;;12.92;100.00
49841;BME280;35738;49.890;5.930;2023-07-20T06:28:49;96222.28;;;13.00;100.00
49841;BME280;35738;49.890;5.930;2023-07-20T06:31:16;96221.53;;;13.12;100.00
49841;BME280;35738;49.890;5.930;2023-07-20T06:33:43;96223.91;;;13.22;100.00
49841;BME280;35738;49.890;5.930;2023-07-20T06:36:09;96214.75;;;13.30;100.00
49841;BME280;35738;49.890;5.930;2023-07-20T06:38:39;96213.25;;;13.32;100.00
49841;BME280;35738;49.890;5.930;2023-07-20T06:41:07;96206.91;;;13.32;100.00
49841;BME280;35738;49.890;5.930;2023-07-20T06:43:36;96200.91;;;13.51;100.00
49841;BME280;35738;49.890;5.930;2023-07-20T06:46:06;96197.91;;;13.44;100.00
49841;BME280;35738;49.890;5.930;2023-07-20T06:48:33;96189.91;;;13.63;100.00
49841;BME280;35738;49.890;5.930;2023-07-20T06:51:20;96180.72;;;13.83;100.00
49841;BME280;35738;49.890;5.930;2023-07-20T06:53:47;96178.25;;;14.27;100.00
49841;BME280;35738;49.890;5.930;2023-07-20T06:56:14;96156.66;;;14.81;100.00
49841;BME280;35738;49.890;5.930;2023-07-20T06:58:40;96114.63;;;15.91;100.00
49841;BME280;35738;49.890;5.930;2023-07-20T07:01:08;96070.84;;;16.67;100.00
49841;BME280;35738;49.890;5.930;2023-07-20T07:03:35;96022.06;;;17.92;100.00
49841;BME280;35738;49.890;5.930;2023-07-20T07:06:01;95960.47;;;17.94;100.00
49841;BME280;35738;49.890;5.930;2023-07-20T07:08:28;95950.91;;;18.51;100.00
49841;BME280;35738;49.890;5.930;2023-07-20T07:10:55;95916.53;;;18.66;100.00
49841;BME280;35738;49.890;5.930;2023-07-20T07:13:21;95922.19;;;17.64;100.00
49841;BME280;35738;49.890;5.930;2023-07-20T07:15:50;95961.09;;;17.61;100.00
49841;BME280;35738;49.890;5.930;2023-07-20T07:18:17;95949.34;;;18.24;100.00
49841;BME280;35738;49.890;5.930;2023-07-20T07:20:51;95945.72;;;17.21;100.00
49841;BME280;35738;49.890;5.930;2023-07-20T07:23:18;95967.06;;;16.56;100.00
49841;BME280;35738;49.890;5.930;2023-07-20T07:25:45;95981.81;;;16.60;100.00
49841;BME280;35738;49.890;5.930;2023-07-20T07:28:12;95979.66;;;16.34;100.00
49841;BME280;35738;49.890;5.930;2023-07-20T07:30:39;96005.88;;;15.66;100.00
49841;BME280;35738;49.890;5.930;2023-07-20T07:33:05;96004.47;;;15.44;100.00
49841;BME280;35738;49.890;5.930;2023-07-20T07:35:33;96041.25;;;15.88;100.00
49841;BME280;35738;49.890;5.930;2023-07-20T07:37:59;96022.31;;;16.26;100.00
49841;BME280;35738;49.890;5.930;2023-07-20T07:40:44;96007.97;;;15.88;100.00
49841;BME280;35738;49.890;5.930;2023-07-20T07:43:11;96027.06;;;15.74;100.00
49841;BME280;35738;49.890;5.930;2023-07-20T07:45:39;96042.72;;;15.67;100.00
49841;BME280;35738;49.890;5.930;2023-07-20T07:48:07;96050.25;;;15.38;100.00
49841;BME280;35738;49.890;5.930;2023-07-20T07:50:34;96050.56;;;15.21;100.00
49841;BME280;35738;49.890;5.930;2023-07-20T07:53:00;96054.06;;;15.62;100.00
49841;BME280;35738;49.890;5.930;2023-07-20T07:55:27;96044.22;;;15.64;100.00
49841;BME280;35738;49.890;5.930;2023-07-20T07:57:54;96032.97;;;15.73;100.00
49841;BME280;35738;49.890;5.930;2023-07-20T08:00:21;96018.66;;;15.71;100.00
49841;BME280;35738;49.890;5.930;2023-07-20T08:02:47;96020.94;;;16.00;100.00
49841;BME280;35738;49.890;5.930;2023-07-20T08:05:17;96012.72;;;16.23;100.00
49841;BME280;35738;49.890;5.930;2023-07-20T08:07:43;95992.78;;;16.17;100.00
49841;BME280;35738;49.890;5.930;2023-07-20T08:10:11;95978.63;;;16.23;100.00
49841;BME280;35738;49.890;5.930;2023-07-20T08:12:38;95979.03;;;16.05;100.00
49841;BME280;35738;49.890;5.930;2023-07-20T08:15:05;95990.94;;;16.06;100.00
49841;BME280;35738;49.890;5.930;2023-07-20T08:17:35;95973.97;;;16.27;100.00
49841;BME280;35738;49.890;5.930;2023-07-20T08:20:01;95962.63;;;16.16;100.00
49841;BME280;35738;49.890;5.930;2023-07-20T08:22:28;95976.38;;;16.28;100.00
49841;BME280;35738;49.890;5.930;2023-07-20T08:24:55;95970.50;;;16.49;100.00
49841;BME280;35738;49.890;5.930;2023-07-20T08:27:21;95971.31;;;16.69;100.00
49841;BME280;35738;49.890;5.930;2023-07-20T08:29:48;95973.72;;;16.16;100.00
49841;BME280;35738;49.890;5.930;2023-07-20T08:32:15;95992.47;;;16.03;100.00
49841;BME280;35738;49.890;5.930;2023-07-20T08:34:42;95995.00;;;15.93;100.00
49841;BME280;35738;49.890;5.930;2023-07-20T08:37:08;96000.94;;;16.10;100.00
49841;BME280;35738;49.890;5.930;2023-07-20T08:39:36;95974.09;;;16.14;100.00
49841;BME280;35738;49.890;5.930;2023-07-20T08:42:04;95954.38;;;16.19;100.00
49841;BME280;35738;49.890;5.930;2023-07-20T08:44:33;95940.09;;;16.37;100.00
49841;BME280;35738;49.890;5.930;2023-07-20T08:47:04;95923.34;;;16.33;100.00
49841;BME280;35738;49.890;5.930;2023-07-20T08:49:31;95921.69;;;16.48;100.00
49841;BME280;35738;49.890;5.930;2023-07-20T08:51:59;95914.09;;;16.45;100.00
49841;BME280;35738;49.890;5.930;2023-07-20T08:54:33;95916.09;;;16.87;100.00
49841;BME280;35738;49.890;5.930;2023-07-20T08:57:02;95907.97;;;16.97;100.00
49841;BME280;35738;49.890;5.930;2023-07-20T08:59:30;95913.28;;;17.06;100.00
49841;BME280;35738;49.890;5.930;2023-07-20T09:01:58;95897.75;;;17.24;100.00
49841;BME280;35738;49.890;5.930;2023-07-20T09:04:25;95883.88;;;17.05;100.00
49841;BME280;35738;49.890;5.930;2023-07-20T09:06:52;95888.94;;;16.99;100.00
49841;BME280;35738;49.890;5.930;2023-07-20T09:09:20;95886.38;;;17.10;100.00
49841;BME280;35738;49.890;5.930;2023-07-20T09:11:48;95888.59;;;17.24;100.00
49841;BME280;35738;49.890;5.930;2023-07-20T09:14:15;95880.88;;;17.63;100.00
49841;BME280;35738;49.890;5.930;2023-07-20T09:16:54;95879.41;;;17.95;100.00
49841;BME280;35738;49.890;5.930;2023-07-20T09:19:22;95861.31;;;18.12;100.00
49841;BME280;35738;49.890;5.930;2023-07-20T09:21:50;95855.53;;;17.68;100.00
49841;BME280;35738;49.890;5.930;2023-07-20T09:24:18;95845.34;;;17.53;100.00
49841;BME280;35738;49.890;5.930;2023-07-20T09:26:47;95848.47;;;17.47;100.00
49841;BME280;35738;49.890;5.930;2023-07-20T09:29:18;95841.19;;;17.39;100.00
49841;BME280;35738;49.890;5.930;2023-07-20T09:32:02;95843.44;;;17.57;100.00
49841;BME280;35738;49.890;5.930;2023-07-20T09:34:32;95830.69;;;17.56;100.00
49841;BME280;35738;49.890;5.930;2023-07-20T09:37:02;95843.59;;;17.94;100.00
49841;BME280;35738;49.890;5.930;2023-07-20T09:39:29;95832.63;;;18.41;100.00
49841;BME280;35738;49.890;5.930;2023-07-20T09:42:00;95809.13;;;18.39;100.00
49841;BME280;35738;49.890;5.930;2023-07-20T09:44:31;95803.59;;;18.42;100.00
49841;BME280;35738;49.890;5.930;2023-07-20T09:47:03;95792.19;;;18.18;100.00
49841;BME280;35738;49.890;5.930;2023-07-20T09:49:31;95806.47;;;17.83;100.00
49841;BME280;35738;49.890;5.930;2023-07-20T09:52:18;95809.94;;;17.76;100.00
49841;BME280;35738;49.890;5.930;2023-07-20T09:55:08;95802.94;;;18.56;100.00
49841;BME280;35738;49.890;5.930;2023-07-20T09:57:35;95804.06;;;18.85;100.00
49841;BME280;35738;49.890;5.930;2023-07-20T10:00:07;95794.53;;;18.86;100.00
49841;BME280;35738;49.890;5.930;2023-07-20T10:02:45;95784.97;;;18.87;100.00
49841;BME280;35738;49.890;5.930;2023-07-20T10:05:14;95793.66;;;18.41;100.00
49841;BME280;35738;49.890;5.930;2023-07-20T10:07:47;95799.72;;;18.51;100.00
49841;BME280;35738;49.890;5.930;2023-07-20T10:10:15;95795.53;;;18.30;100.00
49841;BME280;35738;49.890;5.930;2023-07-20T10:12:48;95795.19;;;18.35;100.00
49841;BME280;35738;49.890;5.930;2023-07-20T10:15:20;95798.38;;;18.37;100.00
49841;BME280;35738;49.890;5.930;2023-07-20T10:18:12;95794.72;;;18.30;100.00
49841;BME280;35738;49.890;5.930;2023-07-20T10:20:41;95795.66;;;18.45;100.00
49841;BME280;35738;49.890;5.930;2023-07-20T10:23:31;95800.28;;;18.30;100.00
49841;BME280;35738;49.890;5.930;2023-07-20T10:26:01;95799.03;;;18.24;100.00
49841;BME280;35738;49.890;5.930;2023-07-20T10:28:28;95790.59;;;18.17;100.00
49841;BME280;35738;49.890;5.930;2023-07-20T10:30:55;95779.88;;;18.19;100.00
49841;BME280;35738;49.890;5.930;2023-07-20T10:33:22;95784.69;;;18.22;100.00
49841;BME280;35738;49.890;5.930;2023-07-20T10:35:57;95784.47;;;18.37;100.00
49841;BME280;35738;49.890;5.930;2023-07-20T10:41:18;95761.28;;;18.63;100.00
49841;BME280;35738;49.890;5.930;2023-07-20T10:43:47;95750.03;;;18.97;100.00
49841;BME280;35738;49.890;5.930;2023-07-20T10:46:13;95728.72;;;19.26;100.00
49841;BME280;35738;49.890;5.930;2023-07-20T10:49:03;95719.19;;;19.30;100.00
49841;BME280;35738;49.890;5.930;2023-07-20T10:51:44;95705.00;;;18.91;100.00
49841;BME280;35738;49.890;5.930;2023-07-20T10:56:44;95708.97;;;18.46;100.00
49841;BME280;35738;49.890;5.930;2023-07-20T11:01:57;95691.16;;;18.58;100.00
49841;BME280;35738;49.890;5.930;2023-07-20T11:04:44;95681.38;;;18.71;100.00
49841;BME280;35738;49.890;5.930;2023-07-20T11:07:15;95684.38;;;18.55;100.00
49841;BME280;35738;49.890;5.930;2023-07-20T11:09:43;95682.81;;;18.58;100.00
49841;BME280;35738;49.890;5.930;2023-07-20T11:12:17;95680.25;;;18.38;100.00
49841;BME280;35738;49.890;5.930;2023-07-20T11:14:53;95680.13;;;18.65;100.00
49841;BME280;35738;49.890;5.930;2023-07-20T11:17:28;95663.91;;;18.78;100.00
49841;BME280;35738;49.890;5.930;2023-07-20T11:19:57;95655.53;;;18.78;100.00
49841;BME280;35738;49.890;5.930;2023-07-20T11:22:27;95661.53;;;18.80;100.00
49841;BME280;35738;49.890;5.930;2023-07-20T11:24:57;95657.59;;;18.88;100.00
49841;BME280;35738;49.890;5.930;2023-07-20T11:27:24;95649.81;;;19.18;100.00
49841;BME280;35738;49.890;5.930;2023-07-20T11:29:51;95650.78;;;19.51;100.00
49841;BME280;35738;49.890;5.930;2023-07-20T11:32:22;95643.75;;;19.89;100.00
49841;BME280;35738;49.890;5.930;2023-07-20T11:34:49;95641.84;;;20.25;100.00
49841;BME280;35738;49.890;5.930;2023-07-20T11:37:19;95645.03;;;20.34;100.00
49841;BME280;35738;49.890;5.930;2023-07-20T11:39:46;95660.81;;;19.62;100.00
49841;BME280;35738;49.890;5.930;2023-07-20T11:42:13;95659.81;;;19.26;100.00
49841;BME280;35738;49.890;5.930;2023-07-20T11:45:02;95662.00;;;18.89;100.00
49841;BME280;35738;49.890;5.930;2023-07-20T11:47:31;95653.44;;;19.26;100.00
49841;BME280;35738;49.890;5.930;2023-07-20T11:50:02;95649.84;;;19.25;100.00
49841;BME280;35738;49.890;5.930;2023-07-20T11:52:30;95650.78;;;19.51;100.00
49841;BME280;35738;49.890;5.930;2023-07-20T11:54:57;95639.78;;;20.00;100.00
49841;BME280;35738;49.890;5.930;2023-07-20T11:57:24;95643.06;;;20.49;100.00
49841;BME280;35738;49.890;5.930;2023-07-20T11:59:55;95637.47;;;20.59;100.00
49841;BME280;35738;49.890;5.930;2023-07-20T12:02:29;95642.66;;;20.79;100.00
49841;BME280;35738;49.890;5.930;2023-07-20T12:04:57;95642.25;;;20.34;100.00
49841;BME280;35738;49.890;5.930;2023-07-20T12:07:32;95635.81;;;20.05;100.00
49841;BME280;35738;49.890;5.930;2023-07-20T12:10:14;95645.44;;;19.21;100.00
49841;BME280;35738;49.890;5.930;2023-07-20T12:12:43;95638.00;;;19.43;100.00
49841;BME280;35738;49.890;5.930;2023-07-20T12:15:26;95637.34;;;19.74;100.00
49841;BME280;35738;49.890;5.930;2023-07-20T12:17:57;95634.25;;;20.18;100.00
49841;BME280;35738;49.890;5.930;2023-07-20T12:23:08;95623.91;;;20.47;100.00
49841;BME280;35738;49.890;5.930;2023-07-20T12:25:44;95628.66;;;20.25;100.00
49841;BME280;35738;49.890;5.930;2023-07-20T12:28:17;95624.69;;;20.66;100.00
49841;BME280;35738;49.890;5.930;2023-07-20T12:30:46;95623.41;;;21.27;100.00
49841;BME280;35738;49.890;5.930;2023-07-20T12:33:17;95626.19;;;21.34;100.00
49841;BME280;35738;49.890;5.930;2023-07-20T12:35:44;95625.78;;;21.39;100.00
49841;BME280;35738;49.890;5.930;2023-07-20T12:38:11;95626.94;;;21.56;100.00
49841;BME280;35738;49.890;5.930;2023-07-20T12:40:37;95617.91;;;20.88;100.00
49841;BME280;35738;49.890;5.930;2023-07-20T12:43:04;95619.81;;;21.27;100.00
49841;BME280;35738;49.890;5.930;2023-07-20T12:45:34;95615.63;;;21.77;100.00
49841;BME280;35738;49.890;5.930;2023-07-20T12:48:02;95612.72;;;21.92;100.00
49841;BME280;35738;49.890;5.930;2023-07-20T12:50:29;95623.59;;;21.82;100.00
49841;BME280;35738;49.890;5.930;2023-07-20T12:52:57;95619.84;;;21.12;100.00
49841;BME280;35738;49.890;5.930;2023-07-20T12:55:25;95619.88;;;20.98;100.00
49841;BME280;35738;49.890;5.930;2023-07-20T12:57:52;95611.91;;;20.97;100.00
49841;BME280;35738;49.890;5.930;2023-07-20T13:00:21;95609.44;;;21.23;100.00
49841;BME280;35738;49.890;5.930;2023-07-20T13:02:51;95605.84;;;21.16;100.00
49841;BME280;35738;49.890;5.930;2023-07-20T13:05:35;95613.41;;;21.30;100.00
49841;BME280;35738;49.890;5.930;2023-07-20T13:08:04;95607.69;;;21.65;100.00
49841;BME280;35738;49.890;5.930;2023-07-20T13:10:35;95600.53;;;22.30;100.00
49841;BME280;35738;49.890;5.930;2023-07-20T13:13:01;95604.97;;;22.69;100.00
49841;BME280;35738;49.890;5.930;2023-07-20T13:15:32;95596.72;;;22.96;100.00
49841;BME280;35738;49.890;5.930;2023-07-20T13:17:59;95592.34;;;22.95;100.00
49841;BME280;35738;49.890;5.930;2023-07-20T13:20:26;95590.66;;;23.01;100.00